Time;durP1;ratioP1;P1;durP2;ratioP2;P2;SDS_P1;SDS_P2;PMS_P1;PMS_P2;Temp;Humidity;BMP_temperature;BMP_pressure;BME280_temperature;BME280_humidity;BME280_pressure;Samples;Min_cycle;Max_cycle;Signal;HPM_P1;HPM_P2
2022/11/13 00:01:51;;;;;;;37.70;18.90;;;;;;;4.68;100.00;102393.88;10536222;28;20506;-68
2022/11/13 00:06:54;;;;;;;27.35;17.90;;;;;;;4.69;100.00;102385.25;10536934;28;20087;-69
2022/11/13 00:11:57;;;;;;;28.33;17.80;;;;;;;4.64;100.00;102385.22;10536204;28;20101;-70
2022/11/13 00:16:58;;;;;;;26.00;17.58;;;;;;;4.62;100.00;102387.78;10533504;28;20093;-69
2022/11/13 00:22:03;;;;;;;26.17;17.13;;;;;;;4.50;100.00;102374.78;10536071;28;20060;-68
2022/11/13 00:27:04;;;;;;;28.83;16.15;;;;;;;4.43;100.00;102375.56;10535685;28;20783;-69
2022/11/13 00:32:06;;;;;;;30.20;16.13;;;;;;;4.38;100.00;102371.22;10535697;28;20055;-69
2022/11/13 00:37:09;;;;;;;28.45;17.05;;;;;;;4.29;100.00;102373.75;10536123;28;20113;-68
2022/11/13 00:42:11;;;;;;;30.55;16.25;;;;;;;4.15;100.00;102357.25;10535278;28;20560;-70
2022/11/13 00:47:12;;;;;;;26.87;16.00;;;;;;;4.14;100.00;102352.94;10532896;28;20538;-68
2022/11/13 00:52:15;;;;;;;26.80;17.03;;;;;;;4.08;100.00;102344.25;10536181;28;20330;-69
2022/11/13 00:57:17;;;;;;;25.58;14.63;;;;;;;4.03;100.00;102347.69;10535102;28;20051;-69
2022/11/13 01:02:19;;;;;;;23.95;15.88;;;;;;;3.89;100.00;102350.09;10535224;28;20062;-68
2022/11/13 01:07:22;;;;;;;26.40;15.63;;;;;;;3.79;100.00;102346.56;10535221;28;20059;-69
2022/11/13 01:12:23;;;;;;;22.77;14.85;;;;;;;3.71;100.00;102333.59;10537072;28;20302;-69
2022/11/13 01:17:25;;;;;;;32.13;15.77;;;;;;;3.82;100.00;102341.44;10540079;28;20074;-69
2022/11/13 01:22:28;;;;;;;25.48;14.88;;;;;;;3.73;100.00;102342.22;10541981;28;20103;-68
2022/11/13 01:27:31;;;;;;;27.63;15.13;;;;;;;3.67;100.00;102342.16;10542134;28;20054;-69
2022/11/13 01:32:33;;;;;;;22.40;13.80;;;;;;;3.74;100.00;102328.47;10541935;28;20139;-69
2022/11/13 01:37:36;;;;;;;22.52;14.75;;;;;;;3.51;100.00;102330.78;10542307;28;20044;-69
2022/11/13 01:42:39;;;;;;;23.33;13.90;;;;;;;3.62;100.00;102333.50;10541653;28;20044;-69
2022/11/13 01:47:41;;;;;;;25.95;14.07;;;;;;;3.60;100.00;102325.75;10538983;28;20048;-69
2022/11/13 01:52:44;;;;;;;21.43;14.00;;;;;;;3.40;100.00;102317.75;10541022;28;20051;-70
2022/11/13 01:57:46;;;;;;;21.10;13.63;;;;;;;3.25;100.00;102314.13;10540796;28;20079;-69
2022/11/13 02:02:48;;;;;;;30.70;15.45;;;;;;;3.19;100.00;102298.59;10540778;28;20052;-69
2022/11/13 02:07:51;;;;;;;23.43;13.57;;;;;;;3.19;100.00;102294.28;10540676;28;20532;-70
2022/11/13 02:12:53;;;;;;;25.27;14.10;;;;;;;3.35;100.00;102295.34;10540451;28;20454;-69
2022/11/13 02:17:58;;;;;;;29.70;15.13;;;;;;;3.25;100.00;102290.06;10537921;28;20447;-69
2022/11/13 02:23:17;;;;;;;30.73;14.20;;;;;;;3.14;100.00;102292.50;10538767;28;20490;-69
2022/11/13 02:28:20;;;;;;;25.70;13.32;;;;;;;3.10;100.00;102273.56;10539351;28;20611;-69
2022/11/13 02:33:26;;;;;;;28.35;15.52;;;;;;;3.18;100.00;102276.25;10539008;28;20093;-69
2022/11/13 02:38:28;;;;;;;26.73;15.32;;;;;;;3.17;100.00;102271.91;10540007;28;20135;-69
2022/11/13 02:43:32;;;;;;;24.95;14.85;;;;;;;3.35;100.00;102266.97;10538921;28;20117;-69
2022/11/13 02:48:34;;;;;;;30.02;15.70;;;;;;;3.30;100.00;102263.47;10536925;28;20112;-69
2022/11/13 02:53:37;;;;;;;24.23;15.60;;;;;;;3.28;100.00;102260.00;10539193;28;20123;-69
2022/11/13 02:58:40;;;;;;;27.40;14.15;;;;;;;3.15;100.00;102261.56;10539032;28;20051;-69
2022/11/13 03:03:43;;;;;;;24.58;14.70;;;;;;;3.14;100.00;102254.69;10538955;28;20060;-69
2022/11/13 03:08:45;;;;;;;23.13;14.15;;;;;;;3.15;100.00;102255.56;10537820;28;20052;-69
2022/11/13 03:13:49;;;;;;;23.43;13.50;;;;;;;3.13;100.00;102246.94;10538368;28;20066;-69
2022/11/13 03:18:50;;;;;;;19.25;12.45;;;;;;;3.13;100.00;102236.59;10535102;28;20503;-68
2022/11/13 03:23:54;;;;;;;19.57;12.67;;;;;;;3.14;100.00;102238.31;10537642;28;20113;-69
2022/11/13 03:28:57;;;;;;;20.75;12.65;;;;;;;3.08;100.00;102229.69;10537188;28;20093;-68
2022/11/13 03:33:59;;;;;;;23.63;12.98;;;;;;;3.09;100.00;102226.25;10537435;28;20110;-68
2022/11/13 03:39:00;;;;;;;24.27;13.80;;;;;;;3.17;100.00;102228.06;10536725;28;20120;-70
2022/11/13 03:44:05;;;;;;;23.23;13.43;;;;;;;3.21;100.00;102224.66;10537207;28;20792;-69
2022/11/13 03:49:06;;;;;;;22.98;11.88;;;;;;;3.21;100.00;102216.91;10535456;28;20561;-70
2022/11/13 03:54:08;;;;;;;17.33;12.53;;;;;;;3.33;100.00;102213.59;10536307;28;20075;-70
2022/11/13 03:59:11;;;;;;;18.33;12.60;;;;;;;3.45;100.00;102208.56;10536662;28;20068;-69
2022/11/13 04:04:14;;;;;;;19.65;11.93;;;;;;;3.67;100.00;102207.88;10536018;28;20382;-69
2022/11/13 04:09:16;;;;;;;19.27;11.68;;;;;;;3.82;100.00;102192.53;10536022;28;20081;-69
2022/11/13 04:14:19;;;;;;;19.63;11.88;;;;;;;3.86;100.00;102198.56;10534084;28;20097;-69
2022/11/13 04:19:21;;;;;;;22.05;12.75;;;;;;;3.95;100.00;102182.28;10535679;28;20135;-69
2022/11/13 04:24:22;;;;;;;19.47;11.60;;;;;;;3.97;100.00;102180.56;10535556;28;20396;-69
2022/11/13 04:29:25;;;;;;;21.63;11.53;;;;;;;3.85;100.00;102169.31;10535985;28;20094;-70
2022/11/13 04:34:27;;;;;;;21.25;11.43;;;;;;;3.80;100.00;102172.72;10535813;28;20336;-68
2022/11/13 04:39:30;;;;;;;23.25;12.07;;;;;;;3.81;100.00;102164.09;10535902;28;20055;-70
2022/11/13 04:44:33;;;;;;;17.50;11.15;;;;;;;3.76;100.00;102165.78;10533123;28;20058;-70
2022/11/13 04:49:34;;;;;;;18.38;11.68;;;;;;;3.62;100.00;102163.09;10541172;28;20537;-69
2022/11/13 04:54:36;;;;;;;18.50;11.07;;;;;;;3.59;100.00;102163.91;10544123;28;20073;-70
2022/11/13 04:59:39;;;;;;;22.83;11.83;;;;;;;3.46;100.00;102157.81;10543031;28;20674;-70
2022/11/13 05:04:42;;;;;;;18.00;10.88;;;;;;;3.46;100.00;102157.81;10542927;28;20726;-69
2022/11/13 05:09:44;;;;;;;19.83;12.35;;;;;;;3.43;100.00;102157.78;10543593;28;20055;-69
2022/11/13 05:14:47;;;;;;;21.98;12.23;;;;;;;3.40;100.00;102162.91;10540266;28;20074;-70
2022/11/13 05:19:48;;;;;;;18.63;11.60;;;;;;;3.27;100.00;102151.59;10542300;28;20052;-69
2022/11/13 05:24:51;;;;;;;20.73;11.53;;;;;;;3.21;100.00;102148.13;10542369;28;20065;-70
2022/11/13 05:29:54;;;;;;;22.73;13.15;;;;;;;3.55;100.00;102142.38;10541879;28;20556;-69
2022/11/13 05:34:56;;;;;;;20.58;11.32;;;;;;;3.21;100.00;102134.34;10541402;28;20132;-70
2022/11/13 05:39:58;;;;;;;23.90;12.13;;;;;;;2.99;100.00;102141.91;10541129;28;20056;-71
2022/11/13 05:45:01;;;;;;;17.97;11.67;;;;;;;2.91;100.00;102135.78;10538814;28;20550;-70
2022/11/13 05:50:03;;;;;;;20.77;12.18;;;;;;;2.82;100.00;102137.44;10540853;28;20314;-71
2022/11/13 05:55:06;;;;;;;19.52;12.45;;;;;;;2.85;100.00;102143.44;10541218;28;20133;-71
2022/11/13 06:00:11;;;;;;;21.15;12.18;;;;;;;2.72;100.00;102140.75;10540017;28;20403;-71
2022/11/13 06:05:13;;;;;;;21.42;12.25;;;;;;;2.63;100.00;102144.06;10540079;28;20090;-70
2022/11/13 06:10:16;;;;;;;19.95;12.15;;;;;;;2.52;100.00;102136.22;10539802;28;20429;-71
2022/11/13 06:15:19;;;;;;;21.70;13.18;;;;;;;2.59;100.00;102126.00;10537578;28;20080;-70
2022/11/13 06:20:21;;;;;;;22.77;13.07;;;;;;;2.51;100.00;102126.75;10540165;28;20112;-71
2022/11/13 06:25:22;;;;;;;21.23;12.33;;;;;;;2.37;100.00;102120.56;10539510;28;20112;-71
2022/11/13 06:30:25;;;;;;;21.63;12.33;;;;;;;2.19;100.00;102111.78;10539141;28;20112;-70
2022/11/13 06:35:27;;;;;;;19.95;11.80;;;;;;;2.12;100.00;102112.53;10540209;28;20067;-70
2022/11/13 06:40:29;;;;;;;22.83;11.45;;;;;;;2.02;100.00;102109.81;10539161;28;20097;-70
2022/11/13 06:45:32;;;;;;;20.20;11.73;;;;;;;2.14;100.00;102109.13;10536514;28;20056;-70
2022/11/13 06:50:34;;;;;;;19.92;11.82;;;;;;;2.17;100.00;102108.28;10538608;28;20510;-69
2022/11/13 06:55:43;;;;;;;19.85;11.70;;;;;;;2.04;100.00;102107.25;10538993;28;20072;-70
2022/11/13 07:00:46;;;;;;;18.02;11.25;;;;;;;2.20;100.00;102103.19;10538532;28;20093;-70
2022/11/13 07:05:49;;;;;;;21.63;11.10;;;;;;;2.17;100.00;102103.16;10538059;28;20432;-70
2022/11/13 07:10:55;;;;;;;19.20;11.50;;;;;;;2.18;100.00;102108.31;10537320;28;20500;-70
2022/11/13 07:16:04;;;;;;;20.25;11.70;;;;;;;2.09;100.00;102104.75;10535393;28;20044;-71
2022/11/13 07:21:09;;;;;;;21.75;11.90;;;;;;;2.10;100.00;102097.06;10534540;28;20102;-70
2022/11/13 07:26:12;;;;;;;24.30;13.25;;;;;;;2.11;100.00;102091.06;10498911;28;20044;-70
2022/11/13 07:31:17;;;;;;;26.70;16.08;;;;;;;2.14;100.00;102087.66;10517209;28;20108;-71
2022/11/13 07:36:20;;;;;;;27.42;14.38;;;;;;;2.19;100.00;102083.44;10536114;28;20140;-71
2022/11/13 07:41:22;;;;;;;27.65;15.80;;;;;;;2.31;100.00;102090.44;10516178;28;20477;-71
2022/11/13 07:46:25;;;;;;;25.10;14.47;;;;;;;2.38;100.00;102086.22;10492502;28;20082;-71
2022/11/13 07:51:27;;;;;;;22.48;12.90;;;;;;;2.45;100.00;102085.44;10495643;28;20584;-71
2022/11/13 07:56:28;;;;;;;22.73;13.97;;;;;;;2.52;100.00;102079.53;10536538;28;20076;-71
2022/11/13 08:01:31;;;;;;;22.40;13.57;;;;;;;2.64;100.00;102088.25;10536389;28;20059;-71
2022/11/13 08:06:36;;;;;;;23.52;13.23;;;;;;;2.98;100.00;102078.28;10536588;28;20109;-71
2022/11/13 08:11:38;;;;;;;28.13;14.85;;;;;;;3.19;100.00;102081.88;10536714;28;20116;-71
2022/11/13 08:16:41;;;;;;;23.73;14.30;;;;;;;3.67;100.00;102081.38;10533808;28;20102;-71
2022/11/13 08:21:42;;;;;;;23.63;15.32;;;;;;;4.16;100.00;102074.72;10536762;28;20067;-71
2022/11/13 08:26:44;;;;;;;51.83;20.87;;;;;;;6.09;100.00;102071.38;10524841;28;20086;-71
2022/11/13 08:31:47;;;;;;;36.17;18.37;;;;;;;7.84;100.00;102073.56;10544548;28;20056;-70
2022/11/13 08:36:49;;;;;;;27.35;16.67;;;;;;;8.71;100.00;102071.59;10543736;28;20314;-71
2022/11/13 08:41:50;;;;;;;31.67;17.60;;;;;;;9.39;100.00;102054.88;10544373;28;20569;-72
2022/11/13 08:46:53;;;;;;;28.60;15.85;;;;;;;9.93;100.00;102059.97;10541631;28;20048;-71
2022/11/13 08:51:55;;;;;;;30.33;16.55;;;;;;;8.41;100.00;102056.38;10544582;28;20040;-72
2022/11/13 08:56:57;;;;;;;30.30;16.83;;;;;;;7.70;100.00;102052.94;10543633;28;20109;-72
2022/11/13 09:02:00;;;;;;;29.58;19.25;;;;;;;10.10;100.00;102049.19;10543443;28;20048;-72
2022/11/13 09:07:03;;;;;;;26.02;18.60;;;;;;;12.17;100.00;102052.78;10543723;28;20067;-73
2022/11/13 09:12:05;;;;;;;13.02;11.65;;;;;;;11.78;96.17;102043.41;10544611;28;20048;-77
2022/11/13 09:17:10;;;;;;;9.73;8.25;;;;;;;13.16;97.26;102047.91;10542432;28;20101;-76
2022/11/13 09:22:12;;;;;;;8.00;7.20;;;;;;;14.01;94.10;102034.44;10542862;28;20105;-80
2022/11/13 09:27:13;;;;;;;7.82;7.07;;;;;;;14.30;90.59;102026.31;10510430;28;20075;-78
2022/11/13 09:32:17;;;;;;;;;;;;;;;13.71;78.23;102036.41;10500020;28;20056;-78
2022/11/13 09:37:19;;;;;;;7.25;6.60;;;;;;;14.63;70.94;102036.41;10499892;28;19959;-77
2022/11/13 09:42:26;;;;;;;9.50;6.47;;;;;;;16.66;66.91;102035.38;10500452;28;20101;-78
2022/11/13 09:47:36;;;;;;;7.72;6.60;;;;;;;15.59;84.64;102038.56;10497826;28;20048;-75
2022/11/13 09:52:42;;;;;;;9.40;6.25;;;;;;;14.51;69.10;102035.13;10499767;28;20059;-78
2022/11/13 09:57:57;;;;;;;6.78;6.07;;;;;;;14.45;80.22;102040.63;10499279;28;20098;-76
2022/11/13 10:03:23;;;;;;;6.53;5.93;;;;;;;13.36;69.89;102027.13;10499630;28;20044;-75
2022/11/13 10:08:34;;;;;;;8.00;5.85;;;;;;;14.82;67.11;102029.56;10499609;28;20057;-75
2022/11/13 10:13:44;;;;;;;7.03;6.43;;;;;;;16.32;79.02;102031.78;10498928;28;20135;-77
2022/11/13 10:18:50;;;;;;;7.22;5.80;;;;;;;16.33;62.07;102028.22;10496424;28;20406;-76
2022/11/13 10:23:56;;;;;;;11.05;6.03;;;;;;;15.64;73.18;102031.31;10498545;28;20060;-76
2022/11/13 10:29:09;;;;;;;6.82;6.00;;;;;;;16.87;61.20;102019.44;10498218;28;20053;-76
2022/11/13 10:34:16;;;;;;;5.97;5.30;;;;;;;16.93;59.64;102013.84;10498354;28;20052;-76
2022/11/13 10:39:18;;;;;;;6.40;5.50;;;;;;;15.91;67.87;102009.91;10497478;28;20290;-75
2022/11/13 10:44:27;;;;;;;8.18;5.40;;;;;;;16.08;62.59;102000.41;10494897;28;20405;-75
2022/11/13 10:49:30;;;;;;;10.23;5.97;;;;;;;15.87;56.85;101992.56;10497377;28;20052;-76
2022/11/13 10:54:33;;;;;;;7.22;5.93;;;;;;;16.12;76.43;101986.19;10496725;28;20484;-75
2022/11/13 10:59:41;;;;;;;6.45;5.80;;;;;;;16.58;63.52;101976.94;10496638;28;20085;-74
2022/11/13 11:04:45;;;;;;;11.95;6.10;;;;;;;17.88;58.11;101963.16;10496820;28;20102;-76
2022/11/13 11:09:48;;;;;;;8.65;6.03;;;;;;;17.50;62.92;101948.53;10497015;28;20052;-76
2022/11/13 11:15:15;;;;;;;9.50;5.60;;;;;;;17.34;66.33;101951.13;10493682;28;20097;-75
2022/11/13 11:20:39;;;;;;;5.30;4.90;;;;;;;17.93;54.89;101961.13;10496294;28;20048;-76
2022/11/13 11:25:49;;;;;;;6.95;5.85;;;;;;;16.67;55.03;101958.06;10495473;28;20425;-75
2022/11/13 11:30:59;;;;;;;7.38;5.43;;;;;;;17.33;63.96;101950.28;10495536;28;20094;-74
2022/11/13 11:36:17;;;;;;;6.63;5.80;;;;;;;18.49;62.55;101952.72;10496345;28;20075;-76
2022/11/13 11:41:26;;;;;;;5.70;5.10;;;;;;;17.91;53.31;101939.25;10505646;28;20067;-74
2022/11/13 11:46:30;;;;;;;6.20;5.53;;;;;;;15.88;59.37;101925.81;10535444;28;20438;-75
2022/11/13 11:51:53;;;;;;;5.70;5.20;;;;;;;17.54;55.25;101915.75;10538698;28;20047;-73
2022/11/13 11:57:02;;;;;;;5.95;5.45;;;;;;;18.30;61.68;101901.88;10538047;28;20056;-75
2022/11/13 12:02:50;;;;;;;6.82;5.43;;;;;;;15.60;57.95;101899.97;10538952;28;20052;-80
2022/11/13 12:08:13;;;;;;;5.95;5.20;;;;;;;16.66;60.24;101885.16;10519116;28;20052;-74
2022/11/13 12:13:28;;;;;;;5.95;5.32;;;;;;;17.04;59.40;101888.53;10539472;28;20047;-74
2022/11/13 12:18:47;;;;;;;5.60;5.10;;;;;;;17.14;61.52;101881.81;10536112;28;20044;-73
2022/11/13 12:24:27;;;;;;;6.35;4.88;;;;;;;16.70;59.67;101873.53;10536010;28;20051;-75
2022/11/13 12:29:58;;;;;;;5.45;4.93;;;;;;;17.42;55.07;101861.00;10535634;28;20484;-75
2022/11/13 12:35:09;;;;;;;5.28;4.78;;;;;;;16.51;60.15;101854.34;10536505;28;20094;-75
2022/11/13 12:40:28;;;;;;;7.13;4.30;;;;;;;16.80;55.22;101834.38;10536546;28;20102;-76
2022/11/13 12:45:49;;;;;;;5.72;4.40;;;;;;;17.55;53.58;101837.44;10533164;28;20089;-77
2022/11/13 12:50:59;;;;;;;4.95;4.45;;;;;;;18.04;57.88;101830.25;10536603;28;20062;-75
2022/11/13 12:56:03;;;;;;;4.53;4.05;;;;;;;20.50;56.56;101825.44;10535804;28;20514;-75
2022/11/13 13:01:17;;;;;;;4.53;3.78;;;;;;;20.34;56.87;101817.69;10536162;28;20052;-75
2022/11/13 13:06:50;;;;;;;5.45;4.47;;;;;;;19.76;48.74;101805.59;10535788;28;20054;-76
2022/11/13 13:12:06;;;;;;;4.45;4.05;;;;;;;19.55;49.82;101795.50;10542530;28;20099;-76
2022/11/13 13:17:20;;;;;;;6.95;4.10;;;;;;;18.99;51.50;101796.34;10540474;28;20080;-75
2022/11/13 13:22:30;;;;;;;5.15;4.10;;;;;;;18.30;57.34;101772.44;10542442;28;20105;-76
2022/11/13 13:27:38;;;;;;;4.20;3.80;;;;;;;17.61;58.84;101761.41;10543198;28;20052;-75
2022/11/13 13:33:03;;;;;;;5.00;3.75;;;;;;;16.28;62.66;101743.16;10541998;28;20079;-75
2022/11/13 13:38:18;;;;;;;4.30;3.60;;;;;;;15.58;62.19;101736.94;10541845;28;20454;-76
2022/11/13 13:43:47;;;;;;;5.30;3.33;;;;;;;15.21;63.51;101734.31;10542208;28;20101;-76
2022/11/13 13:48:54;;;;;;;3.75;3.33;;;;;;;15.23;63.26;101723.75;10539125;28;20537;-75
2022/11/13 13:54:01;;;;;;;4.63;3.53;;;;;;;15.14;60.99;101725.03;10541621;28;20055;-76
2022/11/13 13:59:05;;;;;;;4.57;3.03;;;;;;;14.65;65.02;101723.75;10541546;28;20128;-75
2022/11/13 14:04:14;;;;;;;3.30;2.97;;;;;;;14.28;62.27;101731.50;10541140;28;20052;-75
2022/11/13 14:09:20;;;;;;;3.40;3.10;;;;;;;14.34;66.51;101733.84;10540894;28;20040;-75
2022/11/13 14:14:24;;;;;;;3.75;3.00;;;;;;;14.32;67.47;101725.19;10540634;28;20074;-76
2022/11/13 14:19:26;;;;;;;3.50;3.20;;;;;;;13.94;66.30;101722.44;10539719;28;20039;-76
2022/11/13 14:24:34;;;;;;;4.35;3.00;;;;;;;13.92;66.80;101724.31;10540546;28;20054;-75
2022/11/13 14:29:44;;;;;;;4.45;3.50;;;;;;;13.57;70.90;101714.34;10539901;28;20048;-75
2022/11/13 14:34:48;;;;;;;4.28;3.30;;;;;;;13.37;70.63;101714.22;10539618;28;20536;-76
2022/11/13 14:39:51;;;;;;;3.65;3.30;;;;;;;13.25;71.13;101706.88;10539657;28;20075;-76
2022/11/13 14:45:13;;;;;;;6.68;3.17;;;;;;;13.10;72.79;101711.78;10537246;28;20105;-76
2022/11/13 14:50:22;;;;;;;5.53;3.13;;;;;;;12.81;76.97;101705.91;10539617;28;20040;-76
2022/11/13 14:55:27;;;;;;;3.90;3.17;;;;;;;12.52;78.38;101705.22;10539393;28;20109;-75
2022/11/13 15:00:34;;;;;;;5.43;3.95;;;;;;;12.18;80.02;101704.69;10538628;28;20055;-74
2022/11/13 15:05:36;;;;;;;5.60;3.90;;;;;;;11.95;80.39;101702.88;10538412;28;20416;-73
2022/11/13 15:10:38;;;;;;;7.53;3.63;;;;;;;11.65;82.43;101687.28;10538226;28;20051;-73
2022/11/13 15:15:41;;;;;;;4.07;3.67;;;;;;;11.40;82.46;101695.94;10536572;28;20052;-73
2022/11/13 15:20:45;;;;;;;4.95;3.85;;;;;;;11.06;83.55;101688.25;10538442;28;20048;-72
2022/11/13 15:25:46;;;;;;;7.72;3.97;;;;;;;10.73;83.62;101697.97;10537524;28;20629;-73
2022/11/13 15:30:49;;;;;;;5.03;3.83;;;;;;;10.42;86.26;101684.03;10536855;28;20106;-72
2022/11/13 15:35:51;;;;;;;5.95;4.60;;;;;;;10.10;85.69;101689.25;10537471;28;20577;-72
2022/11/13 15:40:54;;;;;;;5.10;4.05;;;;;;;9.85;89.19;101683.81;10537547;28;20109;-72
2022/11/13 15:45:58;;;;;;;7.88;4.40;;;;;;;9.58;91.10;101681.03;10534810;28;20066;-72
2022/11/13 15:51:00;;;;;;;5.60;4.65;;;;;;;9.30;95.28;101671.28;10536994;28;20040;-73
2022/11/13 15:56:07;;;;;;;5.75;5.15;;;;;;;9.17;90.22;101668.94;10536716;28;20048;-73
2022/11/13 16:01:14;;;;;;;5.70;4.38;;;;;;;8.89;90.23;101651.34;10536652;28;20048;-73
2022/11/13 16:06:20;;;;;;;5.88;4.82;;;;;;;8.52;93.42;101652.13;10536666;28;20101;-71
2022/11/13 16:11:22;;;;;;;6.35;4.65;;;;;;;8.14;100.00;101642.44;10537304;28;20052;-73
2022/11/13 16:16:32;;;;;;;7.07;5.00;;;;;;;7.79;100.00;101637.03;10533657;28;20055;-73
2022/11/13 16:21:34;;;;;;;7.30;5.18;;;;;;;7.55;100.00;101612.31;10536829;28;20058;-72
2022/11/13 16:26:35;;;;;;;8.63;6.50;;;;;;;7.32;98.83;101627.41;10536300;28;20065;-73
2022/11/13 16:31:38;;;;;;;8.73;6.05;;;;;;;7.11;99.40;101633.78;10536010;28;20094;-72
2022/11/13 16:36:41;;;;;;;9.65;6.88;;;;;;;6.92;100.00;101622.84;10535532;28;20733;-72
2022/11/13 16:41:43;;;;;;;8.30;6.60;;;;;;;6.75;100.00;101626.53;10536190;28;20060;-72
2022/11/13 16:46:48;;;;;;;9.10;6.55;;;;;;;6.62;100.00;101620.66;10540776;28;20040;-72
2022/11/13 16:51:50;;;;;;;13.70;6.97;;;;;;;6.36;100.00;101618.41;10543903;28;20054;-72
2022/11/13 16:56:52;;;;;;;11.80;7.20;;;;;;;6.27;100.00;101614.19;10543292;28;20419;-73
2022/11/13 17:01:55;;;;;;;7.70;6.23;;;;;;;6.25;100.00;101610.72;10543717;28;20051;-72
2022/11/13 17:06:57;;;;;;;8.93;6.25;;;;;;;6.05;100.00;101609.22;10543156;28;20040;-72
2022/11/13 17:11:59;;;;;;;14.07;6.73;;;;;;;5.86;100.00;101619.78;10543083;28;20089;-72
2022/11/13 17:17:05;;;;;;;11.77;7.00;;;;;;;5.75;100.00;101621.59;10540240;28;20105;-72
2022/11/13 17:22:07;;;;;;;11.98;7.68;;;;;;;5.61;100.00;101622.56;10542396;28;20040;-73
2022/11/13 17:27:09;;;;;;;13.90;8.23;;;;;;;5.48;100.00;101608.88;10542740;28;20461;-73
2022/11/13 17:32:12;;;;;;;13.30;8.00;;;;;;;5.29;100.00;101608.19;10541901;28;20052;-72
2022/11/13 17:37:14;;;;;;;12.70;8.98;;;;;;;5.14;100.00;101597.06;10542361;28;20109;-73
2022/11/13 17:42:16;;;;;;;13.77;9.95;;;;;;;5.06;100.00;101591.09;10542247;28;20074;-73
2022/11/13 17:47:19;;;;;;;14.40;11.20;;;;;;;4.97;100.00;101593.75;10539369;28;20048;-72
2022/11/13 17:52:20;;;;;;;17.70;10.88;;;;;;;4.89;100.00;101599.84;10541981;28;20409;-72
2022/11/13 17:57:22;;;;;;;17.57;10.73;;;;;;;4.85;100.00;101592.97;10540439;28;20537;-72
2022/11/13 18:02:25;;;;;;;12.30;9.73;;;;;;;4.73;100.00;101582.69;10541239;28;20301;-72
2022/11/13 18:07:27;;;;;;;17.40;9.88;;;;;;;4.67;100.00;101574.97;10541171;28;20056;-72
2022/11/13 18:12:29;;;;;;;12.17;8.90;;;;;;;4.60;100.00;101562.09;10540637;28;20065;-72
2022/11/13 18:17:32;;;;;;;13.32;9.18;;;;;;;4.50;100.00;101560.41;10537901;28;20363;-72
2022/11/13 18:22:33;;;;;;;10.85;8.60;;;;;;;4.40;100.00;101569.06;10539928;28;20052;-73
2022/11/13 18:27:37;;;;;;;18.80;11.57;;;;;;;4.34;100.00;101562.22;10540218;28;20090;-73
2022/11/13 18:32:40;;;;;;;14.10;10.15;;;;;;;4.25;100.00;101560.56;10539902;28;20060;-72
2022/11/13 18:37:42;;;;;;;16.65;10.73;;;;;;;4.25;100.00;101552.81;10539762;28;20041;-73
2022/11/13 18:42:43;;;;;;;15.97;10.93;;;;;;;4.14;100.00;101547.66;10539511;28;20109;-73
2022/11/13 18:47:46;;;;;;;20.93;12.23;;;;;;;4.17;100.00;101537.31;10537101;28;20048;-72
2022/11/13 18:52:48;;;;;;;18.63;11.88;;;;;;;4.19;100.00;101542.47;10539177;28;20059;-72
2022/11/13 18:57:50;;;;;;;17.27;12.07;;;;;;;4.21;100.00;101531.25;10538712;28;20119;-73
2022/11/13 19:02:53;;;;;;;17.50;11.70;;;;;;;4.28;100.00;101531.25;10537986;28;20479;-73
2022/11/13 19:07:57;;;;;;;19.58;13.10;;;;;;;4.29;100.00;101528.66;10536561;28;20311;-72
2022/11/13 19:12:58;;;;;;;24.70;13.93;;;;;;;4.38;100.00;101518.25;10536900;28;20400;-72
2022/11/13 19:18:01;;;;;;;20.57;14.40;;;;;;;4.33;100.00;101511.41;10534145;28;20079;-73
2022/11/13 19:23:03;;;;;;;22.05;14.00;;;;;;;4.46;100.00;101507.03;10536240;28;20058;-73
2022/11/13 19:28:05;;;;;;;21.23;13.73;;;;;;;4.49;100.00;101505.25;10536304;28;20116;-73
2022/11/13 19:33:08;;;;;;;20.77;14.90;;;;;;;4.42;100.00;101505.31;10526758;28;20130;-72
2022/11/13 19:38:09;;;;;;;20.65;14.32;;;;;;;4.52;100.00;101501.81;10522288;28;20062;-72
2022/11/13 19:43:11;;;;;;;21.47;14.87;;;;;;;4.34;100.00;101493.31;10536806;28;20059;-72
2022/11/13 19:48:14;;;;;;;23.95;15.13;;;;;;;4.25;100.00;101486.44;10533871;28;20055;-72
2022/11/13 19:53:16;;;;;;;22.48;14.18;;;;;;;4.14;100.00;101482.22;10510273;28;20056;-73
2022/11/13 19:58:18;;;;;;;21.17;16.57;;;;;;;4.02;100.00;101481.41;10535744;28;20047;-72
2022/11/13 20:03:24;;;;;;;24.65;15.63;;;;;;;3.97;100.00;101485.75;10535417;28;20078;-72
2022/11/13 20:08:27;;;;;;;25.48;16.58;;;;;;;3.92;100.00;101480.59;10535434;28;20058;-72
2022/11/13 20:13:33;;;;;;;22.83;15.82;;;;;;;3.93;100.00;101471.97;10534974;28;20120;-73
2022/11/13 20:18:36;;;;;;;25.25;16.15;;;;;;;4.02;100.00;101463.34;10532989;28;20078;-72
2022/11/13 20:23:38;;;;;;;22.92;16.23;;;;;;;3.97;100.00;101458.19;10534730;28;20052;-73
2022/11/13 20:28:40;;;;;;;21.30;15.02;;;;;;;3.86;100.00;101449.63;10515573;28;20461;-73
2022/11/13 20:33:43;;;;;;;22.00;15.40;;;;;;;3.73;100.00;101447.09;10494226;28;20048;-73
2022/11/13 20:38:50;;;;;;;18.00;14.40;;;;;;;3.61;100.00;101444.56;10494848;28;20402;-72
2022/11/13 20:43:54;;;;;;;19.15;14.48;;;;;;;3.56;100.00;101447.16;10494610;28;20041;-72
2022/11/13 20:48:59;;;;;;;18.48;13.70;;;;;;;3.52;100.00;101437.72;10492201;28;20079;-73
2022/11/13 20:54:01;;;;;;;22.45;14.63;;;;;;;3.64;100.00;101439.41;10494600;28;20090;-72
2022/11/13 20:59:04;;;;;;;27.92;16.65;;;;;;;3.44;100.00;101436.88;10495799;28;20097;-72
2022/11/13 21:04:07;;;;;;;22.50;14.90;;;;;;;3.41;100.00;101432.59;10495135;28;20159;-72
2022/11/13 21:09:10;;;;;;;19.02;14.80;;;;;;;3.37;100.00;101435.19;10496048;28;20153;-72
2022/11/13 21:14:12;;;;;;;26.67;17.10;;;;;;;3.30;100.00;101440.38;10494250;28;20071;-72
2022/11/13 21:19:15;;;;;;;24.55;15.55;;;;;;;3.19;100.00;101427.47;10490314;28;20079;-72
2022/11/13 21:24:17;;;;;;;24.05;15.30;;;;;;;3.13;100.00;101414.59;10492550;28;20058;-73
2022/11/13 21:29:19;;;;;;;22.83;15.63;;;;;;;2.99;100.00;101408.59;10494485;28;20083;-72
2022/11/13 21:34:22;;;;;;;24.13;15.80;;;;;;;3.25;100.00;101400.81;10500325;28;20059;-72
2022/11/13 21:39:25;;;;;;;23.95;16.42;;;;;;;3.09;100.00;101400.00;10499680;28;20105;-72
2022/11/13 21:44:26;;;;;;;23.35;16.55;;;;;;;3.04;100.00;101389.69;10499435;28;20074;-73
2022/11/13 21:49:31;;;;;;;22.10;16.57;;;;;;;2.96;100.00;101378.53;10497846;28;20062;-72
2022/11/13 21:54:32;;;;;;;22.35;15.23;;;;;;;2.86;100.00;101376.81;10500468;28;20101;-73
2022/11/13 21:59:34;;;;;;;28.83;17.23;;;;;;;2.74;100.00;101368.25;10499441;28;20105;-73
2022/11/13 22:04:37;;;;;;;26.98;16.98;;;;;;;2.68;100.00;101357.97;10499065;28;20333;-72
2022/11/13 22:09:39;;;;;;;27.00;17.58;;;;;;;2.66;100.00;101357.09;10499313;28;20574;-72
2022/11/13 22:14:40;;;;;;;30.23;18.53;;;;;;;2.64;100.00;101351.09;10496718;28;20059;-72
2022/11/13 22:19:43;;;;;;;31.17;18.97;;;;;;;2.59;100.00;101339.94;10498577;28;20125;-73
2022/11/13 22:24:45;;;;;;;30.40;18.55;;;;;;;2.47;100.00;101331.34;10498185;28;20065;-73
2022/11/13 22:29:47;;;;;;;27.93;18.73;;;;;;;2.65;100.00;101321.88;10497831;28;20553;-73
2022/11/13 22:34:53;;;;;;;31.17;21.10;;;;;;;2.60;100.00;101324.44;10498133;28;20063;-73
2022/11/13 22:39:55;;;;;;;28.95;20.40;;;;;;;2.59;100.00;101327.06;10496550;28;20339;-73
2022/11/13 22:44:56;;;;;;;31.07;20.97;;;;;;;2.57;100.00;101329.63;10494626;28;20067;-73
2022/11/13 22:49:59;;;;;;;33.53;22.53;;;;;;;2.59;100.00;101334.78;10497058;28;20519;-72
2022/11/13 22:55:01;;;;;;;35.15;21.45;;;;;;;2.50;100.00;101326.19;10497646;28;20067;-72
2022/11/13 23:00:09;;;;;;;37.23;25.47;;;;;;;2.53;100.00;101318.44;10496945;28;20079;-73